Archival Weather

Murmansk

Murmansk, Russia (ULMM)

Report from: Thursday, April 25, 2024 3:30 AM MSK
Current time: Saturday, June 22, 2024 2:48 AM MSK

Current weather – Weather history – Daily summaries
Weather forecast

Temperature-0.0°C (32.0°F)
Wind chill-2.5°C (27.6°F)
Dew point-1.0°C (30.2°F)
Winds 3.9 kts (2 m/s, 4.5 mph) Southeast (140°)
Visibility6.2 mi. (10 km)
Clouds Scattered clouds 800 ft. (244 m)
Ceiling: Broken clouds 1,400 ft. (427 m)
Altimeter29.97 in.Hg (1015 mB)
Precip. events QF 11:34 AM
Relative humidity93 %
Density altitude-1,807 ft. (-551 m)
Remarks No significant changes expected in the next two hours
Flight conditions Marginal Visual Meteorological Conditions
Raw dataULMM 250030Z 14002MPS 9999 SCT008 BKN014 M00/M01 Q1015 R13/690149 NOSIG RMK OBST OBSC QFE754
An error has occurred. This application may no longer respond until reloaded. Reload 🗙